Time;durP1;ratioP1;P1;durP2;ratioP2;P2;SDS_P1;SDS_P2;PMS_P1;PMS_P2;Temp;Humidity;BMP_temperature;BMP_pressure;BME280_temperature;BME280_humidity;BME280_pressure;Samples;Min_cycle;Max_cycle;Signal;HPM_P1;HPM_P2
2022/01/04 00:01:33;;;;;;;2.90;1.20;;;;;;;;;;7390507;19;20018;-72
2022/01/04 00:03:58;;;;;;;3.50;1.23;;;;;;;;;;7390347;19;20010;-72
2022/01/04 00:06:23;;;;;;;2.67;0.90;;;;;;;;;;7390959;19;20062;-71
2022/01/04 00:08:49;;;;;;;3.95;1.10;;;;;;;;;;7387676;19;20028;-72
2022/01/04 00:11:20;;;;;;;3.72;0.95;;;;;;;;;;7390353;19;20016;-72
2022/01/04 00:13:45;;;;;;;1.30;0.82;;;;;;;;;;7390162;19;20014;-71
2022/01/04 00:16:12;;;;;;;4.00;1.00;;;;;;;;;;7390439;19;19999;-72
2022/01/04 00:18:38;;;;;;;4.28;1.27;;;;;;;;;;7388054;19;20313;-71
2022/01/04 00:21:04;;;;;;;2.08;0.85;;;;;;;;;;7387792;19;20002;-72
2022/01/04 00:23:30;;;;;;;3.17;0.93;;;;;;;;;;7389693;19;19995;-72
2022/01/04 00:25:55;;;;;;;2.03;1.00;;;;;;;;;;7389817;19;20416;-72
2022/01/04 00:28:20;;;;;;;4.35;0.70;;;;;;;;;;7387765;19;20098;-72
2022/01/04 00:30:46;;;;;;;2.50;0.82;;;;;;;;;;7390317;19;20020;-71
2022/01/04 00:33:13;;;;;;;0.98;0.77;;;;;;;;;;7389411;19;19994;-72
2022/01/04 00:35:39;;;;;;;0.95;0.60;;;;;;;;;;7389465;19;20010;-71
2022/01/04 00:38:05;;;;;;;1.00;0.75;;;;;;;;;;7388160;19;20018;-72
2022/01/04 00:40:31;;;;;;;1.55;0.70;;;;;;;;;;7390866;19;20337;-72
2022/01/04 00:43:00;;;;;;;5.47;1.23;;;;;;;;;;7392121;19;19999;-72
2022/01/04 00:45:27;;;;;;;1.70;0.80;;;;;;;;;;7389346;19;20010;-72
2022/01/04 00:50:22;;;;;;;1.83;0.80;;;;;;;;;;7388077;19;20367;-72
2022/01/04 00:52:48;;;;;;;2.30;0.75;;;;;;;;;;7388886;19;20385;-72
2022/01/04 00:55:14;;;;;;;4.28;0.93;;;;;;;;;;7391410;19;20472;-72
2022/01/04 00:57:40;;;;;;;2.70;0.88;;;;;;;;;;7388305;19;20003;-72
2022/01/04 01:00:09;;;;;;;2.95;0.80;;;;;;;;;;7387085;19;20004;-72
2022/01/04 01:02:35;;;;;;;1.35;0.75;;;;;;;;;;7388787;19;19999;-72
2022/01/04 01:05:00;;;;;;;0.63;0.40;;;;;;;;;;7388434;19;20030;-72
2022/01/04 01:07:26;;;;;;;3.28;0.70;;;;;;;;;;7387381;19;20113;-72
2022/01/04 01:10:21;;;;;;;2.13;0.77;;;;;;;;;;7387299;19;19994;-73
2022/01/04 01:12:47;;;;;;;2.35;0.80;;;;;;;;;;7388182;19;20005;-72
2022/01/04 01:15:12;;;;;;;3.58;0.50;;;;;;;;;;7387831;19;19999;-72
2022/01/04 01:17:38;;;;;;;0.80;0.40;;;;;;;;;;7388334;19;20078;-71
2022/01/04 01:20:06;;;;;;;2.17;0.52;;;;;;;;;;7385974;19;20337;-72
2022/01/04 01:22:31;;;;;;;4.28;0.68;;;;;;;;;;7388256;19;20013;-71
2022/01/04 01:24:57;;;;;;;2.72;0.70;;;;;;;;;;7388173;19;19998;-72
2022/01/04 01:27:22;;;;;;;2.47;0.60;;;;;;;;;;7387817;19;20011;-71
2022/01/04 01:29:47;;;;;;;1.90;0.80;;;;;;;;;;7387009;19;20508;-72
2022/01/04 01:32:13;;;;;;;0.52;0.50;;;;;;;;;;7391487;19;19999;-72
2022/01/04 01:34:38;;;;;;;1.13;0.57;;;;;;;;;;7387564;19;20437;-72
2022/01/04 01:37:04;;;;;;;1.25;0.47;;;;;;;;;;7387539;19;20014;-72
2022/01/04 01:39:30;;;;;;;1.40;0.52;;;;;;;;;;7385370;19;20166;-72
2022/01/04 01:41:55;;;;;;;1.58;0.50;;;;;;;;;;7387608;19;19998;-72
2022/01/04 01:44:21;;;;;;;1.20;0.50;;;;;;;;;;7386930;19;20003;-71
2022/01/04 01:46:47;;;;;;;1.17;0.63;;;;;;;;;;7387673;19;19999;-72
2022/01/04 01:49:13;;;;;;;0.75;0.50;;;;;;;;;;7384724;19;20038;-71
2022/01/04 01:51:38;;;;;;;1.70;0.60;;;;;;;;;;7387308;19;20058;-71
2022/01/04 01:54:04;;;;;;;1.35;0.50;;;;;;;;;;7386755;19;20475;-71
2022/01/04 01:56:29;;;;;;;1.95;0.40;;;;;;;;;;7386916;19;20023;-72
2022/01/04 01:58:56;;;;;;;0.82;0.40;;;;;;;;;;7384523;19;20452;-71
2022/01/04 02:01:22;;;;;;;1.55;0.60;;;;;;;;;;7387208;19;20016;-72
2022/01/04 02:03:47;;;;;;;0.95;0.50;;;;;;;;;;7386733;19;19998;-72
2022/01/04 02:06:13;;;;;;;1.20;0.50;;;;;;;;;;7387190;19;19994;-71
2022/01/04 02:08:38;;;;;;;3.08;0.60;;;;;;;;;;7384345;19;20019;-72
2022/01/04 02:11:04;;;;;;;0.40;0.40;;;;;;;;;;7386695;19;20003;-71
2022/01/04 02:13:30;;;;;;;2.78;0.50;;;;;;;;;;7386363;19;20003;-71
2022/01/04 02:15:55;;;;;;;1.27;0.45;;;;;;;;;;7386787;19;20018;-70
2022/01/04 02:18:21;;;;;;;0.70;0.38;;;;;;;;;;7386923;19;20035;-71
2022/01/04 02:20:46;;;;;;;0.75;0.40;;;;;;;;;;7395143;19;20336;-71
2022/01/04 02:23:12;;;;;;;0.95;0.65;;;;;;;;;;7397199;19;20006;-71
2022/01/04 02:25:37;;;;;;;1.67;0.50;;;;;;;;;;7394107;19;20051;-71
2022/01/04 02:28:03;;;;;;;0.57;0.50;;;;;;;;;;7392563;19;19994;-72
2022/01/04 02:30:28;;;;;;;3.50;0.40;;;;;;;;;;7392511;19;19998;-72
2022/01/04 02:32:54;;;;;;;1.08;0.50;;;;;;;;;;7393954;19;19998;-71
2022/01/04 02:35:23;;;;;;;1.20;0.70;;;;;;;;;;7393541;19;20022;-71
2022/01/04 02:37:49;;;;;;;0.75;0.60;;;;;;;;;;7392810;19;20076;-71
2022/01/04 02:40:15;;;;;;;0.73;0.50;;;;;;;;;;7390931;19;20007;-72
2022/01/04 02:42:41;;;;;;;0.68;0.50;;;;;;;;;;7393361;19;19991;-71
2022/01/04 02:45:08;;;;;;;0.73;0.52;;;;;;;;;;7393094;19;19995;-71
2022/01/04 02:47:33;;;;;;;2.45;0.52;;;;;;;;;;7392501;19;20003;-72
2022/01/04 02:49:59;;;;;;;0.50;0.47;;;;;;;;;;7396402;19;20022;-71
2022/01/04 02:52:24;;;;;;;0.52;0.40;;;;;;;;;;7392646;19;19999;-71
2022/01/04 02:54:49;;;;;;;1.25;0.50;;;;;;;;;;7392343;19;20029;-71
2022/01/04 02:57:14;;;;;;;1.17;0.52;;;;;;;;;;7393002;19;19995;-71
2022/01/04 02:59:40;;;;;;;1.17;0.40;;;;;;;;;;7389503;19;19998;-71
2022/01/04 03:02:05;;;;;;;1.23;0.70;;;;;;;;;;7392878;19;20345;-71
2022/01/04 03:04:31;;;;;;;0.82;0.40;;;;;;;;;;7392755;19;19999;-72
2022/01/04 03:06:57;;;;;;;1.35;0.82;;;;;;;;;;7392729;19;19987;-71
2022/01/04 03:09:22;;;;;;;0.82;0.45;;;;;;;;;;7390511;19;19994;-71
2022/01/04 03:11:48;;;;;;;1.10;0.40;;;;;;;;;;7397067;19;20018;-71
2022/01/04 03:14:13;;;;;;;1.52;0.40;;;;;;;;;;7391964;19;20034;-72
2022/01/04 03:16:38;;;;;;;0.98;0.40;;;;;;;;;;7392236;19;20460;-71
2022/01/04 03:19:06;;;;;;;1.48;0.40;;;;;;;;;;7389451;19;20501;-71
2022/01/04 03:21:36;;;;;;;1.00;0.60;;;;;;;;;;7391792;19;20019;-71
2022/01/04 03:24:04;;;;;;;0.63;0.30;;;;;;;;;;7391812;19;19999;-71
2022/01/04 03:26:29;;;;;;;2.88;0.60;;;;;;;;;;7391883;19;20018;-72
2022/01/04 03:28:55;;;;;;;1.88;0.75;;;;;;;;;;7388213;19;20406;-71
2022/01/04 03:31:21;;;;;;;1.20;0.40;;;;;;;;;;7392971;19;19987;-71
2022/01/04 03:33:46;;;;;;;1.40;0.40;;;;;;;;;;7391354;19;20381;-70
2022/01/04 03:36:12;;;;;;;0.68;0.38;;;;;;;;;;7391714;19;19995;-71
2022/01/04 03:38:37;;;;;;;0.60;0.40;;;;;;;;;;7389173;19;20002;-71
2022/01/04 03:41:02;;;;;;;0.43;0.40;;;;;;;;;;7389026;19;20010;-71
2022/01/04 03:43:30;;;;;;;0.32;0.30;;;;;;;;;;7391114;19;20006;-71
2022/01/04 03:45:55;;;;;;;0.63;0.50;;;;;;;;;;7391233;19;19995;-71
2022/01/04 03:48:20;;;;;;;0.47;0.40;;;;;;;;;;7389864;19;20026;-71
2022/01/04 03:50:46;;;;;;;2.95;0.60;;;;;;;;;;7391353;19;20091;-71
2022/01/04 03:53:11;;;;;;;1.10;0.80;;;;;;;;;;7390812;19;20003;-71
2022/01/04 03:55:36;;;;;;;1.23;0.60;;;;;;;;;;7391079;19;19991;-71
2022/01/04 03:58:02;;;;;;;2.05;0.60;;;;;;;;;;7390375;19;20466;-71
2022/01/04 04:00:27;;;;;;;0.50;0.38;;;;;;;;;;7390801;19;20451;-71
2022/01/04 04:02:53;;;;;;;0.52;0.52;;;;;;;;;;7393545;19;20005;-71
2022/01/04 04:05:18;;;;;;;2.88;0.80;;;;;;;;;;7390260;19;20339;-71
2022/01/04 04:07:44;;;;;;;1.13;0.60;;;;;;;;;;7389745;19;19998;-71
2022/01/04 04:10:09;;;;;;;1.98;0.60;;;;;;;;;;7389006;19;19987;-72
2022/01/04 04:12:35;;;;;;;2.00;0.50;;;;;;;;;;7390183;19;20337;-71
2022/01/04 04:15:04;;;;;;;0.82;0.50;;;;;;;;;;7390064;19;19995;-71
2022/01/04 04:17:30;;;;;;;2.85;0.73;;;;;;;;;;7389838;19;20030;-71
2022/01/04 04:19:56;;;;;;;1.45;0.38;;;;;;;;;;7388462;19;19998;-72
2022/01/04 04:22:21;;;;;;;1.48;0.52;;;;;;;;;;7389614;19;20017;-72
2022/01/04 04:24:46;;;;;;;0.68;0.35;;;;;;;;;;7389385;19;20001;-71
2022/01/04 04:27:13;;;;;;;0.60;0.32;;;;;;;;;;7390126;19;20398;-71
2022/01/04 04:29:38;;;;;;;1.35;0.70;;;;;;;;;;7386579;19;20005;-71
2022/01/04 04:32:04;;;;;;;1.27;0.50;;;;;;;;;;7389640;19;20002;-71
2022/01/04 04:34:29;;;;;;;0.65;0.47;;;;;;;;;;7389315;19;20074;-71
2022/01/04 04:36:55;;;;;;;0.70;0.40;;;;;;;;;;7390044;19;20022;-71
2022/01/04 04:39:20;;;;;;;1.20;0.60;;;;;;;;;;7386333;19;20408;-71
2022/01/04 04:41:45;;;;;;;0.40;0.40;;;;;;;;;;7386958;19;20018;-71
2022/01/04 04:44:11;;;;;;;0.38;0.38;;;;;;;;;;7389107;19;20024;-72
2022/01/04 04:46:36;;;;;;;1.48;0.52;;;;;;;;;;7389457;19;19994;-71
2022/01/04 04:49:01;;;;;;;1.13;0.57;;;;;;;;;;7387591;19;20054;-71
2022/01/04 04:51:27;;;;;;;0.50;0.47;;;;;;;;;;7392318;19;19998;-71
2022/01/04 04:53:52;;;;;;;1.20;0.50;;;;;;;;;;7388622;19;20476;-71
2022/01/04 04:56:18;;;;;;;0.75;0.60;;;;;;;;;;7391230;19;20306;-70
2022/01/04 04:58:43;;;;;;;1.00;0.50;;;;;;;;;;7386510;19;20138;-71
2022/01/04 05:01:08;;;;;;;1.17;0.50;;;;;;;;;;7386955;19;20020;-71
2022/01/04 05:03:34;;;;;;;0.60;0.60;;;;;;;;;;7388358;19;19991;-71
2022/01/04 05:05:59;;;;;;;1.63;0.38;;;;;;;;;;7388345;19;19990;-71
2022/01/04 05:08:24;;;;;;;1.75;1.00;;;;;;;;;;7386306;19;20443;-72
2022/01/04 05:10:50;;;;;;;1.30;0.63;;;;;;;;;;7387952;19;20028;-70
2022/01/04 05:13:15;;;;;;;4.07;2.25;;;;;;;;;;7388748;19;20310;-71
2022/01/04 05:15:40;;;;;;;2.55;1.02;;;;;;;;;;7388013;19;20022;-71
2022/01/04 05:18:08;;;;;;;1.80;0.60;;;;;;;;;;7386468;19;20012;-70
2022/01/04 05:20:34;;;;;;;0.77;0.68;;;;;;;;;;7386306;19;20036;-71
2022/01/04 05:22:59;;;;;;;3.63;0.50;;;;;;;;;;7388098;19;19995;-71
2022/01/04 05:25:24;;;;;;;1.67;0.73;;;;;;;;;;7387984;19;20022;-71
2022/01/04 05:27:50;;;;;;;0.50;0.50;;;;;;;;;;7387237;19;20022;-71
2022/01/04 05:30:15;;;;;;;1.05;0.70;;;;;;;;;;7386725;19;20014;-71
2022/01/04 05:32:40;;;;;;;2.35;0.90;;;;;;;;;;7387720;19;20007;-71
2022/01/04 05:35:06;;;;;;;2.78;1.00;;;;;;;;;;7387410;19;20054;-71
2022/01/04 05:37:32;;;;;;;3.97;1.10;;;;;;;;;;7387252;19;20103;-70
2022/01/04 05:39:57;;;;;;;1.80;1.20;;;;;;;;;;7387304;19;20015;-71
2022/01/04 05:42:22;;;;;;;2.80;1.15;;;;;;;;;;7391376;19;20005;-71
2022/01/04 05:44:48;;;;;;;2.00;0.80;;;;;;;;;;7387250;19;20317;-71
2022/01/04 05:47:13;;;;;;;2.92;0.90;;;;;;;;;;7387362;19;19998;-71
2022/01/04 05:49:38;;;;;;;0.95;0.70;;;;;;;;;;7384245;19;20329;-70
2022/01/04 05:52:04;;;;;;;1.83;0.60;;;;;;;;;;7388943;19;19987;-71
2022/01/04 05:54:30;;;;;;;2.60;0.50;;;;;;;;;;7394849;19;19998;-70
2022/01/04 05:56:55;;;;;;;2.03;0.52;;;;;;;;;;7394945;19;20294;-71
2022/01/04 05:59:20;;;;;;;1.13;0.47;;;;;;;;;;7389513;19;20452;-70
2022/01/04 06:01:46;;;;;;;0.77;0.50;;;;;;;;;;7394591;19;19991;-70
2022/01/04 06:04:11;;;;;;;1.40;0.45;;;;;;;;;;7394040;19;20014;-71
2022/01/04 06:06:39;;;;;;;0.90;0.40;;;;;;;;;;7394916;19;19991;-70
2022/01/04 06:09:04;;;;;;;3.25;0.88;;;;;;;;;;7390643;19;20501;-70
2022/01/04 06:16:39;;;;;;;2.00;0.60;;;;;;;;;;7394163;19;20459;-70
2022/01/04 06:19:04;;;;;;;1.17;0.52;;;;;;;;;;7390752;19;19995;-71
2022/01/04 06:21:30;;;;;;;2.05;0.50;;;;;;;;;;7393538;19;19991;-70
2022/01/04 06:23:55;;;;;;;1.50;0.60;;;;;;;;;;7393606;19;20483;-70
2022/01/04 06:26:20;;;;;;;0.52;0.30;;;;;;;;;;7393516;19;19990;-71
2022/01/04 06:28:45;;;;;;;3.25;0.52;;;;;;;;;;7391137;19;19995;-70
2022/01/04 06:31:11;;;;;;;1.77;0.60;;;;;;;;;;7395379;19;20022;-71
2022/01/04 06:33:37;;;;;;;1.20;0.73;;;;;;;;;;7397462;19;19991;-70
2022/01/04 06:36:02;;;;;;;1.10;0.50;;;;;;;;;;7393432;19;20034;-70
2022/01/04 06:38:28;;;;;;;1.30;0.40;;;;;;;;;;7390681;19;20472;-70
2022/01/04 06:40:53;;;;;;;1.45;0.50;;;;;;;;;;7391731;19;19987;-70
2022/01/04 06:43:18;;;;;;;0.70;0.57;;;;;;;;;;7393017;19;20472;-70
2022/01/04 06:45:43;;;;;;;0.82;0.43;;;;;;;;;;7393010;19;20017;-70
2022/01/04 06:48:09;;;;;;;3.90;1.30;;;;;;;;;;7391243;19;20460;-70
2022/01/04 06:50:35;;;;;;;1.67;0.80;;;;;;;;;;7393016;19;20002;-70
2022/01/04 06:53:00;;;;;;;3.90;0.88;;;;;;;;;;7392562;19;20006;-70
2022/01/04 06:55:25;;;;;;;2.88;0.80;;;;;;;;;;7395617;19;20453;-70
2022/01/04 06:57:51;;;;;;;1.55;0.50;;;;;;;;;;7392423;19;20459;-70
2022/01/04 07:00:16;;;;;;;0.40;0.40;;;;;;;;;;7390524;19;20456;-70
2022/01/04 07:02:41;;;;;;;2.10;0.50;;;;;;;;;;7392165;19;20018;-70
2022/01/04 07:05:07;;;;;;;0.90;0.40;;;;;;;;;;7390694;19;19987;-70
2022/01/04 07:07:32;;;;;;;0.88;0.50;;;;;;;;;;7392589;19;19999;-70
2022/01/04 07:09:58;;;;;;;1.95;0.50;;;;;;;;;;7390761;19;20102;-71
2022/01/04 07:12:23;;;;;;;1.65;0.45;;;;;;;;;;7392487;19;20460;-70
2022/01/04 07:14:48;;;;;;;1.45;0.47;;;;;;;;;;7392247;19;20303;-70
2022/01/04 07:17:14;;;;;;;1.30;0.57;;;;;;;;;;7391836;19;20004;-70
2022/01/04 07:19:39;;;;;;;0.95;0.45;;;;;;;;;;7389567;19;20119;-70
2022/01/04 07:22:05;;;;;;;2.20;0.80;;;;;;;;;;7395013;19;20336;-69
2022/01/04 07:24:30;;;;;;;0.75;0.60;;;;;;;;;;7391989;19;20001;-70
2022/01/04 07:26:55;;;;;;;1.02;0.50;;;;;;;;;;7391854;19;19991;-70
2022/01/04 07:29:21;;;;;;;1.48;0.80;;;;;;;;;;7389009;19;20019;-69
2022/01/04 07:31:46;;;;;;;0.40;0.40;;;;;;;;;;7391870;19;19995;-69
2022/01/04 07:34:12;;;;;;;2.85;0.40;;;;;;;;;;7391720;19;19991;-69
2022/01/04 07:36:37;;;;;;;0.52;0.40;;;;;;;;;;7391782;19;19998;-69
2022/01/04 07:39:02;;;;;;;1.83;0.50;;;;;;;;;;7388852;19;20014;-69
2022/01/04 07:41:29;;;;;;;1.00;0.55;;;;;;;;;;7391592;19;20058;-70
2022/01/04 07:43:54;;;;;;;1.42;0.75;;;;;;;;;;7391597;19;20566;-70
2022/01/04 07:46:19;;;;;;;1.67;0.63;;;;;;;;;;7391514;19;19997;-70
2022/01/04 07:48:45;;;;;;;1.95;0.60;;;;;;;;;;7388879;19;19994;-70
2022/01/04 07:51:11;;;;;;;1.35;0.77;;;;;;;;;;7390986;19;19999;-69
2022/01/04 07:53:37;;;;;;;1.27;1.00;;;;;;;;;;7390842;19;20028;-70
2022/01/04 07:56:02;;;;;;;3.38;1.70;;;;;;;;;;7391201;19;19995;-70
2022/01/04 07:58:29;;;;;;;2.25;1.30;;;;;;;;;;7388711;19;20107;-69
2022/01/04 08:00:55;;;;;;;2.50;1.00;;;;;;;;;;7388790;19;19999;-70
2022/01/04 08:03:20;;;;;;;0.63;0.60;;;;;;;;;;7390538;19;19998;-70
2022/01/04 08:05:45;;;;;;;1.60;0.43;;;;;;;;;;7390542;19;19995;-70
2022/01/04 08:08:11;;;;;;;4.15;0.70;;;;;;;;;;7388731;19;20014;-70
2022/01/04 08:10:36;;;;;;;1.75;1.02;;;;;;;;;;7392917;19;20055;-69
2022/01/04 08:13:02;;;;;;;1.10;0.50;;;;;;;;;;7393278;19;19998;-70
2022/01/04 08:15:28;;;;;;;1.45;1.00;;;;;;;;;;7389997;19;20011;-70
2022/01/04 08:17:53;;;;;;;0.65;0.63;;;;;;;;;;7389941;19;19994;-70
2022/01/04 08:20:19;;;;;;;1.08;0.68;;;;;;;;;;7388067;19;19998;-70
2022/01/04 08:22:44;;;;;;;0.90;0.80;;;;;;;;;;7390100;19;19994;-70
2022/01/04 08:25:11;;;;;;;1.40;0.85;;;;;;;;;;7390529;19;20020;-70
2022/01/04 08:27:37;;;;;;;1.70;0.70;;;;;;;;;;7389506;19;20014;-70
2022/01/04 08:30:04;;;;;;;0.60;0.60;;;;;;;;;;7388584;19;19997;-70
2022/01/04 08:32:30;;;;;;;1.27;0.60;;;;;;;;;;7389779;19;20066;-70
2022/01/04 08:34:55;;;;;;;1.85;0.80;;;;;;;;;;7389732;19;20320;-70
2022/01/04 08:37:20;;;;;;;1.00;0.60;;;;;;;;;;7389575;19;19995;-70
2022/01/04 08:39:46;;;;;;;1.67;0.75;;;;;;;;;;7386282;19;20449;-70
2022/01/04 08:42:12;;;;;;;1.13;0.60;;;;;;;;;;7389462;19;19994;-70
2022/01/04 08:44:39;;;;;;;3.58;0.80;;;;;;;;;;7389096;19;20046;-70
2022/01/04 08:47:06;;;;;;;2.30;0.75;;;;;;;;;;7389235;19;19998;-70
2022/01/04 08:49:31;;;;;;;0.90;0.77;;;;;;;;;;7386945;19;20005;-70
2022/01/04 08:51:57;;;;;;;1.27;0.68;;;;;;;;;;7389180;19;19995;-70
2022/01/04 08:54:22;;;;;;;0.55;0.50;;;;;;;;;;7388833;19;19986;-70
2022/01/04 08:56:47;;;;;;;1.40;0.73;;;;;;;;;;7387140;19;20001;-70
2022/01/04 08:59:13;;;;;;;1.10;0.80;;;;;;;;;;7386207;19;19999;-70
2022/01/04 09:01:40;;;;;;;6.10;1.77;;;;;;;;;;7392303;19;19998;-70
2022/01/04 09:04:06;;;;;;;4.30;1.70;;;;;;;;;;7393288;19;20086;-70
2022/01/04 09:06:33;;;;;;;2.38;0.80;;;;;;;;;;7388617;19;20502;-70
2022/01/04 09:08:58;;;;;;;1.10;0.60;;;;;;;;;;7385900;19;20006;-70
2022/01/04 09:11:24;;;;;;;1.52;0.70;;;;;;;;;;7388408;19;20018;-71
2022/01/04 09:13:53;;;;;;;0.82;0.63;;;;;;;;;;7388586;19;20473;-70
2022/01/04 09:18:43;;;;;;;1.00;0.55;;;;;;;;;;7388541;19;20006;-70
2022/01/04 09:19:04;;;;;;;1.70;0.40;;;;;;;;;;7386061;19;20005;-70
2022/01/04 09:21:29;;;;;;;0.82;0.40;;;;;;;;;;7386828;19;20355;-70
2022/01/04 09:23:57;;;;;;;0.80;0.50;;;;;;;;;;7387989;19;19991;-70
2022/01/04 09:26:24;;;;;;;2.08;0.60;;;;;;;;;;7387562;19;19995;-71
2022/01/04 09:28:49;;;;;;;0.82;0.50;;;;;;;;;;7385326;19;19999;-70
2022/01/04 09:31:15;;;;;;;1.00;0.50;;;;;;;;;;7387830;19;20070;-70
2022/01/04 09:33:41;;;;;;;0.85;0.50;;;;;;;;;;7387568;19;20002;-70
2022/01/04 09:36:07;;;;;;;0.73;0.57;;;;;;;;;;7387882;19;20024;-70
2022/01/04 09:38:32;;;;;;;1.15;0.43;;;;;;;;;;7385819;19;20009;-70
2022/01/04 09:40:58;;;;;;;1.15;0.50;;;;;;;;;;7386889;19;19994;-70
2022/01/04 09:43:24;;;;;;;2.88;0.40;;;;;;;;;;7387319;19;20326;-70
2022/01/04 09:45:51;;;;;;;0.80;0.65;;;;;;;;;;7387728;19;20003;-70
2022/01/04 09:48:18;;;;;;;91.32;5.90;;;;;;;;;;7385719;19;19999;-70
2022/01/04 09:50:44;;;;;;;2.15;0.60;;;;;;;;;;7391030;19;19995;-70
2022/01/04 09:53:12;;;;;;;3.03;0.77;;;;;;;;;;7391008;19;20070;-70
2022/01/04 09:55:39;;;;;;;0.95;0.40;;;;;;;;;;7387544;19;20370;-70
2022/01/04 09:58:05;;;;;;;1.35;0.40;;;;;;;;;;7385645;19;20003;-71
2022/01/04 10:00:31;;;;;;;0.82;0.57;;;;;;;;;;7385647;19;20006;-70
2022/01/04 10:03:12;;;;;;;0.40;0.40;;;;;;;;;;7387230;19;19991;-71
2022/01/04 10:05:37;;;;;;;0.98;0.50;;;;;;;;;;7387119;19;20023;-70
2022/01/04 10:08:05;;;;;;;0.65;0.38;;;;;;;;;;7386352;19;19998;-71
2022/01/04 10:10:31;;;;;;;3.65;1.13;;;;;;;;;;7386257;19;19995;-70
2022/01/04 10:13:02;;;;;;;1.83;0.93;;;;;;;;;;7386245;19;20059;-70
2022/01/04 10:15:30;;;;;;;2.72;0.90;;;;;;;;;;7386911;19;19999;-71
2022/01/04 10:17:56;;;;;;;2.60;0.85;;;;;;;;;;7385718;19;20492;-70
2022/01/04 10:20:22;;;;;;;1.67;0.90;;;;;;;;;;7384446;19;19991;-70
2022/01/04 10:22:47;;;;;;;1.48;0.55;;;;;;;;;;7386713;19;19995;-70
2022/01/04 10:25:16;;;;;;;0.90;0.40;;;;;;;;;;7386157;19;20028;-70
2022/01/04 10:27:42;;;;;;;0.68;0.32;;;;;;;;;;7386134;19;20022;-70
2022/01/04 10:30:19;;;;;;;0.40;0.40;;;;;;;;;;7385556;19;20002;-70
2022/01/04 10:32:53;;;;;;;0.90;0.40;;;;;;;;;;7385125;19;20321;-71
2022/01/04 10:35:32;;;;;;;0.60;0.60;;;;;;;;;;7386296;19;19994;-70
2022/01/04 10:38:00;;;;;;;1.05;0.40;;;;;;;;;;7385115;19;20003;-71
2022/01/04 10:40:27;;;;;;;0.50;0.35;;;;;;;;;;7391576;19;20010;-70
2022/01/04 10:42:53;;;;;;;1.55;0.45;;;;;;;;;;7395866;19;20007;-70
2022/01/04 10:45:30;;;;;;;0.50;0.30;;;;;;;;;;7392767;19;19991;-70
2022/01/04 10:48:09;;;;;;;2.00;0.30;;;;;;;;;;7392335;19;19998;-71
2022/01/04 10:50:35;;;;;;;0.52;0.22;;;;;;;;;;7392859;19;20092;-70
2022/01/04 10:53:02;;;;;;;1.15;0.70;;;;;;;;;;7392608;19;20002;-71
2022/01/04 10:55:35;;;;;;;1.75;0.30;;;;;;;;;;7392875;19;20467;-70
2022/01/04 10:58:03;;;;;;;1.40;0.40;;;;;;;;;;7395542;19;20006;-71
2022/01/04 11:00:29;;;;;;;0.50;0.40;;;;;;;;;;7388789;19;20006;-70
2022/01/04 11:02:57;;;;;;;0.38;0.38;;;;;;;;;;7392589;19;20488;-71
2022/01/04 11:05:24;;;;;;;0.40;0.40;;;;;;;;;;7393028;19;20045;-71
2022/01/04 11:07:56;;;;;;;0.77;0.40;;;;;;;;;;7391863;19;20428;-71
2022/01/04 11:10:22;;;;;;;0.52;0.50;;;;;;;;;;7391766;19;20001;-70
2022/01/04 11:12:48;;;;;;;0.68;0.35;;;;;;;;;;7392090;19;19991;-70
2022/01/04 11:15:14;;;;;;;0.90;0.65;;;;;;;;;;7392728;19;19994;-71
2022/01/04 11:17:40;;;;;;;2.65;0.40;;;;;;;;;;7389807;19;20454;-71
2022/01/04 11:20:06;;;;;;;0.88;0.40;;;;;;;;;;7390457;19;19995;-71
2022/01/04 11:22:32;;;;;;;0.50;0.38;;;;;;;;;;7392154;19;20318;-71
2022/01/04 11:25:01;;;;;;;0.70;0.60;;;;;;;;;;7391648;19;19995;-70
2022/01/04 11:27:28;;;;;;;1.40;0.40;;;;;;;;;;7391447;19;20091;-71
2022/01/04 11:29:58;;;;;;;1.10;0.32;;;;;;;;;;7392040;19;19997;-71
2022/01/04 11:32:25;;;;;;;0.57;0.38;;;;;;;;;;7395698;19;20016;-71
2022/01/04 11:35:12;;;;;;;0.32;0.30;;;;;;;;;;7391937;19;20008;-71
2022/01/04 11:37:41;;;;;;;1.75;0.80;;;;;;;;;;7391275;19;19995;-71
2022/01/04 11:40:28;;;;;;;1.15;0.55;;;;;;;;;;7389610;19;20414;-71
2022/01/04 11:42:54;;;;;;;0.93;0.47;;;;;;;;;;7391427;19;19994;-70
2022/01/04 11:45:42;;;;;;;0.88;0.50;;;;;;;;;;7391306;19;20503;-71
2022/01/04 11:48:26;;;;;;;0.50;0.40;;;;;;;;;;7389776;19;20006;-70
2022/01/04 11:50:54;;;;;;;0.95;0.32;;;;;;;;;;7390829;19;20074;-71
2022/01/04 11:53:19;;;;;;;0.50;0.40;;;;;;;;;;7391264;19;20090;-70
2022/01/04 11:55:52;;;;;;;1.60;0.70;;;;;;;;;;7390927;19;19998;-70
2022/01/04 11:58:20;;;;;;;1.30;0.30;;;;;;;;;;7388957;19;20003;-70
2022/01/04 12:00:57;;;;;;;0.50;0.47;;;;;;;;;;7389286;19;19994;-70
2022/01/04 12:03:37;;;;;;;1.33;0.40;;;;;;;;;;7390856;19;20524;-70
2022/01/04 12:06:05;;;;;;;1.02;0.57;;;;;;;;;;7390564;19;20001;-71
2022/01/04 12:08:48;;;;;;;0.60;0.60;;;;;;;;;;7388324;19;20009;-70
2022/01/04 12:11:25;;;;;;;0.63;0.57;;;;;;;;;;7390148;19;19994;-70
2022/01/04 12:13:56;;;;;;;2.03;0.60;;;;;;;;;;7390565;19;20002;-71
2022/01/04 12:16:34;;;;;;;1.55;0.73;;;;;;;;;;7390260;19;19990;-70
2022/01/04 12:19:07;;;;;;;0.77;0.40;;;;;;;;;;7389171;19;20007;-70
2022/01/04 12:21:44;;;;;;;0.88;0.47;;;;;;;;;;7392122;19;20081;-71
2022/01/04 12:24:12;;;;;;;1.35;0.35;;;;;;;;;;7389584;19;20389;-71
2022/01/04 12:26:38;;;;;;;1.58;0.60;;;;;;;;;;7389954;19;19999;-71
2022/01/04 12:29:09;;;;;;;0.40;0.40;;;;;;;;;;7388081;19;19998;-71
2022/01/04 12:31:44;;;;;;;0.98;0.50;;;;;;;;;;7389832;19;20006;-70
2022/01/04 12:34:33;;;;;;;0.82;0.43;;;;;;;;;;7389740;19;20078;-70
2022/01/04 12:37:00;;;;;;;2.22;0.55;;;;;;;;;;7389713;19;20006;-71
2022/01/04 12:39:39;;;;;;;1.90;0.50;;;;;;;;;;7386529;19;19998;-71
2022/01/04 12:42:05;;;;;;;0.70;0.35;;;;;;;;;;7389367;19;19998;-71
2022/01/04 12:44:30;;;;;;;0.65;0.50;;;;;;;;;;7389168;19;20392;-71
2022/01/04 12:46:57;;;;;;;2.53;0.75;;;;;;;;;;7388970;19;19994;-71
2022/01/04 12:49:25;;;;;;;0.75;0.50;;;;;;;;;;7386744;19;20002;-72
2022/01/04 12:51:53;;;;;;;1.02;0.50;;;;;;;;;;7389131;19;20002;-72
2022/01/04 12:54:27;;;;;;;0.75;0.43;;;;;;;;;;7389143;19;20406;-71
2022/01/04 12:56:54;;;;;;;0.30;0.30;;;;;;;;;;7389489;19;19990;-71
2022/01/04 12:59:22;;;;;;;0.82;0.52;;;;;;;;;;7386358;19;20010;-71
2022/01/04 13:01:49;;;;;;;0.95;0.52;;;;;;;;;;7387088;19;20026;-72
2022/01/04 13:04:26;;;;;;;1.50;0.68;;;;;;;;;;7388789;19;20026;-71
2022/01/04 13:06:52;;;;;;;2.13;0.40;;;;;;;;;;7393199;19;20011;-71
2022/01/04 13:09:22;;;;;;;0.98;0.65;;;;;;;;;;7388750;19;20013;-71
2022/01/04 13:11:53;;;;;;;1.63;0.60;;;;;;;;;;7393146;19;20002;-71
2022/01/04 13:14:26;;;;;;;1.75;0.73;;;;;;;;;;7388412;19;20002;-71
2022/01/04 13:17:04;;;;;;;1.27;0.50;;;;;;;;;;7388650;19;20006;-70
2022/01/04 13:19:29;;;;;;;0.98;0.60;;;;;;;;;;7385967;19;20511;-71
2022/01/04 13:22:00;;;;;;;1.35;0.70;;;;;;;;;;7387085;19;20018;-71
2022/01/04 13:24:28;;;;;;;1.17;0.70;;;;;;;;;;7387340;19;20342;-71
2022/01/04 13:26:53;;;;;;;0.60;0.60;;;;;;;;;;7388096;19;20002;-71
2022/01/04 13:29:22;;;;;;;1.25;0.63;;;;;;;;;;7385571;19;20118;-71
2022/01/04 13:31:48;;;;;;;3.05;0.63;;;;;;;;;;7387917;19;20009;-71
2022/01/04 13:34:20;;;;;;;1.35;0.75;;;;;;;;;;7387938;19;20314;-71
2022/01/04 13:36:48;;;;;;;1.73;0.55;;;;;;;;;;7387804;19;19998;-71
2022/01/04 13:39:15;;;;;;;1.60;0.85;;;;;;;;;;7384961;19;20015;-71
2022/01/04 13:41:41;;;;;;;1.70;0.68;;;;;;;;;;7386060;19;19998;-72
2022/01/04 13:44:06;;;;;;;0.80;0.60;;;;;;;;;;7387794;19;20389;-72
2022/01/04 13:46:34;;;;;;;1.38;0.90;;;;;;;;;;7387957;19;19994;-71
2022/01/04 13:49:00;;;;;;;1.35;0.80;;;;;;;;;;7385014;19;20027;-72
2022/01/04 13:51:30;;;;;;;2.05;0.82;;;;;;;;;;7387258;19;20326;-71
2022/01/04 13:53:59;;;;;;;0.43;0.43;;;;;;;;;;7386732;19;20445;-71
2022/01/04 13:56:30;;;;;;;1.10;0.77;;;;;;;;;;7387376;19;19999;-72
2022/01/04 13:58:58;;;;;;;1.08;0.80;;;;;;;;;;7386052;19;20007;-71
2022/01/04 14:01:32;;;;;;;0.82;0.50;;;;;;;;;;7389672;19;20024;-73
2022/01/04 14:04:18;;;;;;;1.00;0.57;;;;;;;;;;7386836;19;19999;-71
2022/01/04 14:06:50;;;;;;;;;;;;;;;;;;7387566;19;20624;-72
2022/01/04 14:09:15;;;;;;;5.00;0.77;;;;;;;;;;7384165;19;19926;-71
2022/01/04 14:11:42;;;;;;;0.90;0.75;;;;;;;;;;7387212;19;20336;-71
2022/01/04 14:14:19;;;;;;;0.95;0.70;;;;;;;;;;7391564;19;20371;-71
2022/01/04 14:17:00;;;;;;;0.80;0.73;;;;;;;;;;7394243;19;20009;-71
2022/01/04 14:19:31;;;;;;;1.23;0.60;;;;;;;;;;7390768;19;20543;-72
2022/01/04 14:22:00;;;;;;;1.13;0.82;;;;;;;;;;7394316;19;20010;-72
2022/01/04 14:24:48;;;;;;;1.40;0.90;;;;;;;;;;7393848;19;20003;-72
2022/01/04 14:27:29;;;;;;;1.83;1.38;;;;;;;;;;7393705;19;20003;-72
2022/01/04 14:30:09;;;;;;;4.78;2.08;;;;;;;;;;7392982;19;20007;-71
2022/01/04 14:32:36;;;;;;;4.03;1.30;;;;;;;;;;7394267;19;20002;-71
2022/01/04 14:35:15;;;;;;;1.10;1.00;;;;;;;;;;7393391;19;19998;-71
2022/01/04 14:37:43;;;;;;;3.60;1.80;;;;;;;;;;7392339;19;19995;-71
2022/01/04 14:40:11;;;;;;;2.13;1.20;;;;;;;;;;7390886;19;20017;-71
2022/01/04 14:42:36;;;;;;;1.65;1.13;;;;;;;;;;7393428;19;20027;-70
2022/01/04 14:45:05;;;;;;;2.78;1.00;;;;;;;;;;7393934;19;20386;-70
2022/01/04 14:47:30;;;;;;;1.48;0.93;;;;;;;;;;7392768;19;20006;-71
2022/01/04 14:49:57;;;;;;;3.58;1.30;;;;;;;;;;7396337;19;20070;-73
2022/01/04 14:52:23;;;;;;;2.40;1.40;;;;;;;;;;7396791;19;20535;-74